sensor_id;sensor_type;location;lat;lon;timestamp;temperature;humidity
44447;DHT22;30152;52.066;5.358;2023-02-21T07:48:34;8.00;99.90
44447;DHT22;30152;52.066;5.358;2023-02-21T07:51:00;8.20;99.90
44447;DHT22;30152;52.066;5.358;2023-02-21T07:55:51;8.10;99.90
44447;DHT22;30152;52.066;5.358;2023-02-21T07:58:17;8.20;99.90
44447;DHT22;30152;52.066;5.358;2023-02-21T08:00:42;8.60;99.90
44447;DHT22;30152;52.066;5.358;2023-02-21T08:03:11;8.30;99.90
44447;DHT22;30152;52.066;5.358;2023-02-21T08:05:38;8.20;99.90
44447;DHT22;30152;52.066;5.358;2023-02-21T08:08:06;8.30;99.90
44447;DHT22;30152;52.066;5.358;2023-02-21T08:15:24;8.20;99.90
44447;DHT22;30152;52.066;5.358;2023-02-21T08:17:50;7.90;99.90
44447;DHT22;30152;52.066;5.358;2023-02-21T08:20:16;8.40;99.90
44447;DHT22;30152;52.066;5.358;2023-02-21T08:22:44;8.40;99.90
44447;DHT22;30152;52.066;5.358;2023-02-21T08:25:10;8.20;99.90
44447;DHT22;30152;52.066;5.358;2023-02-21T08:27:41;8.40;99.90
44447;DHT22;30152;52.066;5.358;2023-02-21T08:30:11;8.30;99.90
44447;DHT22;30152;52.066;5.358;2023-02-21T08:32:39;8.30;99.90
44447;DHT22;30152;52.066;5.358;2023-02-21T08:35:05;8.50;99.90
44447;DHT22;30152;52.066;5.358;2023-02-21T08:37:34;8.30;99.90
44447;DHT22;30152;52.066;5.358;2023-02-21T08:40:03;8.20;99.90
44447;DHT22;30152;52.066;5.358;2023-02-21T08:47:21;8.40;99.90
44447;DHT22;30152;52.066;5.358;2023-02-21T08:49:47;8.40;99.90
44447;DHT22;30152;52.066;5.358;2023-02-21T08:52:15;8.30;99.90
44447;DHT22;30152;52.066;5.358;2023-02-21T08:54:41;9.60;99.90
44447;DHT22;30152;52.066;5.358;2023-02-21T08:57:07;8.60;99.90
44447;DHT22;30152;52.066;5.358;2023-02-21T08:59:32;9.30;99.90
44447;DHT22;30152;52.066;5.358;2023-02-21T09:01:59;8.30;99.90
44447;DHT22;30152;52.066;5.358;2023-02-21T09:04:26;8.40;99.90
44447;DHT22;30152;52.066;5.358;2023-02-21T09:06:52;8.50;99.90
44447;DHT22;30152;52.066;5.358;2023-02-21T09:09:18;8.40;99.90
44447;DHT22;30152;52.066;5.358;2023-02-21T09:11:45;8.60;99.90
44447;DHT22;30152;52.066;5.358;2023-02-21T09:16:38;8.50;99.90
44447;DHT22;30152;52.066;5.358;2023-02-21T09:19:04;8.70;99.90
44447;DHT22;30152;52.066;5.358;2023-02-21T09:21:33;8.40;99.90
44447;DHT22;30152;52.066;5.358;2023-02-21T09:23:59;8.40;99.90
44447;DHT22;30152;52.066;5.358;2023-02-21T09:26:27;8.70;99.90
44447;DHT22;30152;52.066;5.358;2023-02-21T09:28:56;8.50;99.90
44447;DHT22;30152;52.066;5.358;2023-02-21T09:31:21;8.50;99.90
44447;DHT22;30152;52.066;5.358;2023-02-21T09:33:47;8.30;99.90
44447;DHT22;30152;52.066;5.358;2023-02-21T09:36:13;8.50;99.90
44447;DHT22;30152;52.066;5.358;2023-02-21T09:38:38;8.70;99.90
44447;DHT22;30152;52.066;5.358;2023-02-21T09:41:08;8.60;99.90
44447;DHT22;30152;52.066;5.358;2023-02-21T09:43:37;8.60;99.90
44447;DHT22;30152;52.066;5.358;2023-02-21T09:48:36;8.70;99.90
44447;DHT22;30152;52.066;5.358;2023-02-21T09:51:06;8.70;99.90
44447;DHT22;30152;52.066;5.358;2023-02-21T09:53:37;8.30;99.90
44447;DHT22;30152;52.066;5.358;2023-02-21T09:56:13;8.60;99.90
44447;DHT22;30152;52.066;5.358;2023-02-21T09:58:43;8.90;99.90
44447;DHT22;30152;52.066;5.358;2023-02-21T10:06:59;8.70;99.90
44447;DHT22;30152;52.066;5.358;2023-02-21T10:09:37;8.70;99.90
44447;DHT22;30152;52.066;5.358;2023-02-21T10:12:09;9.00;99.90
44447;DHT22;30152;52.066;5.358;2023-02-21T10:14:46;8.70;99.90
44447;DHT22;30152;52.066;5.358;2023-02-21T10:17:33;8.70;99.90
44447;DHT22;30152;52.066;5.358;2023-02-21T10:20:04;8.70;99.90
44447;DHT22;30152;52.066;5.358;2023-02-21T10:22:35;8.60;99.90
44447;DHT22;30152;52.066;5.358;2023-02-21T10:25:26;8.20;99.90
44447;DHT22;30152;52.066;5.358;2023-02-21T10:27:54;8.80;99.90
44447;DHT22;30152;52.066;5.358;2023-02-21T10:30:26;9.10;99.90
44447;DHT22;30152;52.066;5.358;2023-02-21T10:32:53;9.80;99.90
44447;DHT22;30152;52.066;5.358;2023-02-21T10:35:19;8.50;99.90
44447;DHT22;30152;52.066;5.358;2023-02-21T10:37:55;8.40;99.90
44447;DHT22;30152;52.066;5.358;2023-02-21T10:43:16;8.80;99.90
44447;DHT22;30152;52.066;5.358;2023-02-21T10:46:07;8.70;99.90
44447;DHT22;30152;52.066;5.358;2023-02-21T10:48:37;8.90;99.90
44447;DHT22;30152;52.066;5.358;2023-02-21T10:53:45;8.80;99.90
44447;DHT22;30152;52.066;5.358;2023-02-21T10:58:58;8.90;99.90
44447;DHT22;30152;52.066;5.358;2023-02-21T11:04:06;9.30;99.90
44447;DHT22;30152;52.066;5.358;2023-02-21T11:06:39;9.00;99.90
44447;DHT22;30152;52.066;5.358;2023-02-21T11:15:05;9.10;99.90
44447;DHT22;30152;52.066;5.358;2023-02-21T11:17:41;9.10;99.90
44447;DHT22;30152;52.066;5.358;2023-02-21T11:20:25;9.00;99.90
44447;DHT22;30152;52.066;5.358;2023-02-21T11:28:02;9.00;99.90
44447;DHT22;30152;52.066;5.358;2023-02-21T11:30:30;8.90;99.90
44447;DHT22;30152;52.066;5.358;2023-02-21T11:32:57;8.80;99.90
44447;DHT22;30152;52.066;5.358;2023-02-21T11:35:43;8.50;99.90
44447;DHT22;30152;52.066;5.358;2023-02-21T11:38:31;8.70;99.90
44447;DHT22;30152;52.066;5.358;2023-02-21T11:40:57;8.90;99.90
44447;DHT22;30152;52.066;5.358;2023-02-21T11:43:27;8.90;99.90
44447;DHT22;30152;52.066;5.358;2023-02-21T11:46:14;9.10;99.90
44447;DHT22;30152;52.066;5.358;2023-02-21T11:48:58;10.20;99.90
44447;DHT22;30152;52.066;5.358;2023-02-21T11:51:31;8.90;99.90
44447;DHT22;30152;52.066;5.358;2023-02-21T11:53:58;9.10;99.90
44447;DHT22;30152;52.066;5.358;2023-02-21T11:56:34;9.10;99.90
44447;DHT22;30152;52.066;5.358;2023-02-21T12:04:41;8.80;99.90
44447;DHT22;30152;52.066;5.358;2023-02-21T12:24:08;9.10;99.90
44447;DHT22;30152;52.066;5.358;2023-02-21T12:40:22;8.50;99.90
44447;DHT22;30152;52.066;5.358;2023-02-21T12:48:33;9.00;99.90
44447;DHT22;30152;52.066;5.358;2023-02-21T12:51:16;9.00;99.90
44447;DHT22;30152;52.066;5.358;2023-02-21T12:53:52;9.10;99.90
44447;DHT22;30152;52.066;5.358;2023-02-21T12:56:34;9.20;99.90
44447;DHT22;30152;52.066;5.358;2023-02-21T13:01:54;8.90;99.90
44447;DHT22;30152;52.066;5.358;2023-02-21T13:04:46;8.80;99.90
44447;DHT22;30152;52.066;5.358;2023-02-21T13:07:17;9.20;99.90
44447;DHT22;30152;52.066;5.358;2023-02-21T13:10:02;9.00;99.90
44447;DHT22;30152;52.066;5.358;2023-02-21T13:13:00;9.20;99.90
44447;DHT22;30152;52.066;5.358;2023-02-21T13:15:29;8.40;99.90
44447;DHT22;30152;52.066;5.358;2023-02-21T13:18:23;8.80;99.90
44447;DHT22;30152;52.066;5.358;2023-02-21T13:29:19;9.00;99.90
44447;DHT22;30152;52.066;5.358;2023-02-21T13:31:46;9.20;99.90
44447;DHT22;30152;52.066;5.358;2023-02-21T13:34:18;9.00;99.90
44447;DHT22;30152;52.066;5.358;2023-02-21T13:39:19;8.80;99.90
44447;DHT22;30152;52.066;5.358;2023-02-21T13:44:29;8.80;99.90
44447;DHT22;30152;52.066;5.358;2023-02-21T13:57:34;8.70;99.90
44447;DHT22;30152;52.066;5.358;2023-02-21T14:05:22;9.00;99.90
44447;DHT22;30152;52.066;5.358;2023-02-21T14:07:55;9.00;99.90
44447;DHT22;30152;52.066;5.358;2023-02-21T14:10:32;9.10;99.90
44447;DHT22;30152;52.066;5.358;2023-02-21T14:13:02;9.00;99.90
44447;DHT22;30152;52.066;5.358;2023-02-21T14:15:36;8.90;99.90
44447;DHT22;30152;52.066;5.358;2023-02-21T14:18:03;9.20;99.90
44447;DHT22;30152;52.066;5.358;2023-02-21T14:20:28;8.80;99.90
44447;DHT22;30152;52.066;5.358;2023-02-21T14:22:57;8.70;99.90
44447;DHT22;30152;52.066;5.358;2023-02-21T14:25:24;8.70;99.90
44447;DHT22;30152;52.066;5.358;2023-02-21T14:27:51;9.20;99.90
44447;DHT22;30152;52.066;5.358;2023-02-21T14:30:26;8.80;99.90
44447;DHT22;30152;52.066;5.358;2023-02-21T14:32:54;9.00;99.90
44447;DHT22;30152;52.066;5.358;2023-02-21T14:38:06;9.10;99.90
44447;DHT22;30152;52.066;5.358;2023-02-21T14:43:35;9.20;99.90
44447;DHT22;30152;52.066;5.358;2023-02-21T15:00:07;9.00;99.90
44447;DHT22;30152;52.066;5.358;2023-02-21T15:03:25;8.90;99.90
44447;DHT22;30152;52.066;5.358;2023-02-21T15:08:17;9.20;99.90
44447;DHT22;30152;52.066;5.358;2023-02-21T15:10:47;8.90;99.90
44447;DHT22;30152;52.066;5.358;2023-02-21T15:13:23;9.20;99.90
44447;DHT22;30152;52.066;5.358;2023-02-21T15:15:55;9.20;99.90
44447;DHT22;30152;52.066;5.358;2023-02-21T15:18:30;9.30;99.90
44447;DHT22;30152;52.066;5.358;2023-02-21T15:23:41;9.00;99.90
44447;DHT22;30152;52.066;5.358;2023-02-21T15:26:30;10.00;99.90
44447;DHT22;30152;52.066;5.358;2023-02-21T15:29:07;8.70;99.90
44447;DHT22;30152;52.066;5.358;2023-02-21T15:31:35;9.00;99.90
44447;DHT22;30152;52.066;5.358;2023-02-21T15:34:03;8.90;99.90
44447;DHT22;30152;52.066;5.358;2023-02-21T15:36:29;8.40;99.90
44447;DHT22;30152;52.066;5.358;2023-02-21T15:39:10;9.20;99.90
44447;DHT22;30152;52.066;5.358;2023-02-21T15:41:46;9.10;99.90
44447;DHT22;30152;52.066;5.358;2023-02-21T15:44:21;8.80;99.90
44447;DHT22;30152;52.066;5.358;2023-02-21T15:47:07;9.00;99.90
44447;DHT22;30152;52.066;5.358;2023-02-21T15:49:40;9.00;99.90
44447;DHT22;30152;52.066;5.358;2023-02-21T15:52:34;8.70;99.90
44447;DHT22;30152;52.066;5.358;2023-02-21T15:57:38;8.80;99.90
44447;DHT22;30152;52.066;5.358;2023-02-21T16:00:31;8.90;99.90
44447;DHT22;30152;52.066;5.358;2023-02-21T16:08:52;9.50;99.90
44447;DHT22;30152;52.066;5.358;2023-02-21T16:11:23;8.40;99.90
44447;DHT22;30152;52.066;5.358;2023-02-21T16:13:49;8.80;99.90
44447;DHT22;30152;52.066;5.358;2023-02-21T16:16:15;8.80;99.90
44447;DHT22;30152;52.066;5.358;2023-02-21T16:18:41;8.70;99.90
44447;DHT22;30152;52.066;5.358;2023-02-21T16:21:20;8.70;99.90
44447;DHT22;30152;52.066;5.358;2023-02-21T16:28:40;8.90;99.90
44447;DHT22;30152;52.066;5.358;2023-02-21T16:31:08;8.60;99.90
44447;DHT22;30152;52.066;5.358;2023-02-21T16:33:37;8.30;99.90
44447;DHT22;30152;52.066;5.358;2023-02-21T16:36:08;9.50;99.90
44447;DHT22;30152;52.066;5.358;2023-02-21T16:41:00;8.40;99.90
44447;DHT22;30152;52.066;5.358;2023-02-21T16:43:27;9.60;99.90
44447;DHT22;30152;52.066;5.358;2023-02-21T16:45:58;8.70;99.90
44447;DHT22;30152;52.066;5.358;2023-02-21T16:48:26;8.50;99.90
44447;DHT22;30152;52.066;5.358;2023-02-21T16:50:58;8.60;99.90
44447;DHT22;30152;52.066;5.358;2023-02-21T16:55:50;9.40;99.90
44447;DHT22;30152;52.066;5.358;2023-02-21T16:58:25;8.20;99.90
44447;DHT22;30152;52.066;5.358;2023-02-21T17:00:54;8.90;99.90
44447;DHT22;30152;52.066;5.358;2023-02-21T17:05:46;8.60;99.90
44447;DHT22;30152;52.066;5.358;2023-02-21T17:08:12;8.00;99.90
44447;DHT22;30152;52.066;5.358;2023-02-21T17:10:39;8.90;99.90
44447;DHT22;30152;52.066;5.358;2023-02-21T17:13:05;8.20;99.90
44447;DHT22;30152;52.066;5.358;2023-02-21T17:15:30;8.20;99.90
44447;DHT22;30152;52.066;5.358;2023-02-21T17:17:59;8.40;99.90
44447;DHT22;30152;52.066;5.358;2023-02-21T17:20:25;7.90;99.90
44447;DHT22;30152;52.066;5.358;2023-02-21T17:22:51;8.30;99.90
44447;DHT22;30152;52.066;5.358;2023-02-21T17:25:18;8.30;99.90
44447;DHT22;30152;52.066;5.358;2023-02-21T17:27:44;8.50;99.90
44447;DHT22;30152;52.066;5.358;2023-02-21T17:30:10;8.00;99.90
44447;DHT22;30152;52.066;5.358;2023-02-21T17:32:36;8.10;99.90
44447;DHT22;30152;52.066;5.358;2023-02-21T17:35:03;8.10;99.90
44447;DHT22;30152;52.066;5.358;2023-02-21T17:37:28;7.80;99.90
44447;DHT22;30152;52.066;5.358;2023-02-21T17:39:55;9.00;99.90
44447;DHT22;30152;52.066;5.358;2023-02-21T17:42:22;8.30;99.90
44447;DHT22;30152;52.066;5.358;2023-02-21T17:47:19;8.10;99.90
44447;DHT22;30152;52.066;5.358;2023-02-21T17:49:47;8.10;99.90
44447;DHT22;30152;52.066;5.358;2023-02-21T17:52:13;8.00;99.90
44447;DHT22;30152;52.066;5.358;2023-02-21T17:54:40;8.20;99.90
44447;DHT22;30152;52.066;5.358;2023-02-21T18:04:25;8.30;99.90
44447;DHT22;30152;52.066;5.358;2023-02-21T18:11:50;8.10;99.90
44447;DHT22;30152;52.066;5.358;2023-02-21T18:14:17;7.70;99.90
44447;DHT22;30152;52.066;5.358;2023-02-21T18:19:09;8.10;99.90
44447;DHT22;30152;52.066;5.358;2023-02-21T18:24:08;8.40;99.90
44447;DHT22;30152;52.066;5.358;2023-02-21T18:31:26;7.90;99.90
44447;DHT22;30152;52.066;5.358;2023-02-21T18:41:14;7.90;99.90
44447;DHT22;30152;52.066;5.358;2023-02-21T18:43:41;9.00;99.90
44447;DHT22;30152;52.066;5.358;2023-02-21T18:46:12;7.80;99.90
44447;DHT22;30152;52.066;5.358;2023-02-21T18:48:41;7.80;99.90
44447;DHT22;30152;52.066;5.358;2023-02-21T18:51:09;7.90;99.90
44447;DHT22;30152;52.066;5.358;2023-02-21T18:53:35;8.10;99.90
44447;DHT22;30152;52.066;5.358;2023-02-21T19:03:18;7.90;99.90
44447;DHT22;30152;52.066;5.358;2023-02-21T19:05:44;9.10;99.90
44447;DHT22;30152;52.066;5.358;2023-02-21T19:08:09;7.60;99.90
44447;DHT22;30152;52.066;5.358;2023-02-21T19:10:35;7.80;99.90
44447;DHT22;30152;52.066;5.358;2023-02-21T19:15:28;7.70;99.90
44447;DHT22;30152;52.066;5.358;2023-02-21T19:17:56;8.00;99.90
44447;DHT22;30152;52.066;5.358;2023-02-21T19:22:47;7.70;99.90
44447;DHT22;30152;52.066;5.358;2023-02-21T19:25:15;8.10;99.90
44447;DHT22;30152;52.066;5.358;2023-02-21T19:30:08;8.10;99.90
44447;DHT22;30152;52.066;5.358;2023-02-21T19:32:33;7.70;99.90
44447;DHT22;30152;52.066;5.358;2023-02-21T19:35:00;7.80;99.90
44447;DHT22;30152;52.066;5.358;2023-02-21T19:37:26;8.00;99.90
44447;DHT22;30152;52.066;5.358;2023-02-21T19:42:18;8.00;99.90
44447;DHT22;30152;52.066;5.358;2023-02-21T19:49:35;7.80;99.90
44447;DHT22;30152;52.066;5.358;2023-02-21T19:52:00;8.10;99.90
44447;DHT22;30152;52.066;5.358;2023-02-21T19:54:26;7.80;99.90
44447;DHT22;30152;52.066;5.358;2023-02-21T19:56:54;7.60;99.90
44447;DHT22;30152;52.066;5.358;2023-02-21T20:04:12;7.40;99.90
44447;DHT22;30152;52.066;5.358;2023-02-21T20:06:37;7.50;99.90
44447;DHT22;30152;52.066;5.358;2023-02-21T20:09:07;7.70;99.90
44447;DHT22;30152;52.066;5.358;2023-02-21T20:11:34;7.70;99.90
44447;DHT22;30152;52.066;5.358;2023-02-21T20:14:05;7.60;99.90
44447;DHT22;30152;52.066;5.358;2023-02-21T20:16:36;7.80;99.90
44447;DHT22;30152;52.066;5.358;2023-02-21T20:19:02;7.80;99.90
44447;DHT22;30152;52.066;5.358;2023-02-21T20:21:28;8.30;99.90
44447;DHT22;30152;52.066;5.358;2023-02-21T20:26:23;7.60;99.90
44447;DHT22;30152;52.066;5.358;2023-02-21T20:28:49;7.70;99.90
44447;DHT22;30152;52.066;5.358;2023-02-21T20:31:15;7.40;99.90
44447;DHT22;30152;52.066;5.358;2023-02-21T20:36:07;7.60;99.90
44447;DHT22;30152;52.066;5.358;2023-02-21T20:38:35;8.00;99.90
44447;DHT22;30152;52.066;5.358;2023-02-21T20:48:19;7.60;99.90
44447;DHT22;30152;52.066;5.358;2023-02-21T20:58:09;8.70;99.90
44447;DHT22;30152;52.066;5.358;2023-02-21T21:00:35;7.80;99.90
44447;DHT22;30152;52.066;5.358;2023-02-21T21:03:03;7.60;99.90
44447;DHT22;30152;52.066;5.358;2023-02-21T21:05:29;7.60;99.90
44447;DHT22;30152;52.066;5.358;2023-02-21T21:12:48;7.60;99.90
44447;DHT22;30152;52.066;5.358;2023-02-21T21:15:15;8.40;99.90
44447;DHT22;30152;52.066;5.358;2023-02-21T21:20:09;7.50;99.90
44447;DHT22;30152;52.066;5.358;2023-02-21T21:22:39;7.40;99.90
44447;DHT22;30152;52.066;5.358;2023-02-21T21:25:05;7.60;99.90
44447;DHT22;30152;52.066;5.358;2023-02-21T21:29:57;5.60;99.90
44447;DHT22;30152;52.066;5.358;2023-02-21T21:32:23;7.40;99.90
44447;DHT22;30152;52.066;5.358;2023-02-21T21:34:51;7.40;99.90
44447;DHT22;30152;52.066;5.358;2023-02-21T21:37:20;7.40;99.90
44447;DHT22;30152;52.066;5.358;2023-02-21T21:39:47;7.30;99.90
44447;DHT22;30152;52.066;5.358;2023-02-21T21:42:20;7.30;99.90
44447;DHT22;30152;52.066;5.358;2023-02-21T21:44:47;7.40;99.90
44447;DHT22;30152;52.066;5.358;2023-02-21T21:47:30;7.30;99.90
44447;DHT22;30152;52.066;5.358;2023-02-21T21:50:02;7.10;99.90
44447;DHT22;30152;52.066;5.358;2023-02-21T21:52:30;7.40;99.90
44447;DHT22;30152;52.066;5.358;2023-02-21T21:54:55;7.40;99.90
44447;DHT22;30152;52.066;5.358;2023-02-21T21:57:21;7.20;99.90
44447;DHT22;30152;52.066;5.358;2023-02-21T21:59:48;7.30;99.90
